Time;durP1;ratioP1;P1;durP2;ratioP2;P2;SDS_P1;SDS_P2;PMS_P1;PMS_P2;Temp;Humidity;BMP_temperature;BMP_pressure;BME280_temperature;BME280_humidity;BME280_pressure;Samples;Min_cycle;Max_cycle;Signal;HPM_P1;HPM_P2
2021/06/15 00:01:19;;;;;;;8.15;6.65;;;;;;;18.99;60.46;101148.19;5076398;27;20049;-49
2021/06/15 00:03:44;;;;;;;10.55;6.38;;;;;;;18.86;60.74;101149.47;5092208;27;20027;-49
2021/06/15 00:06:10;;;;;;;9.30;6.68;;;;;;;18.90;60.06;101151.16;5111243;27;20554;-49
2021/06/15 00:08:36;;;;;;;10.65;6.60;;;;;;;18.99;59.62;101148.19;5066959;27;20070;-49
2021/06/15 00:11:03;;;;;;;12.50;7.07;;;;;;;18.92;61.20;101154.59;5106854;27;20042;-50
2021/06/15 00:13:29;;;;;;;9.75;6.47;;;;;;;19.01;59.71;101149.03;5073247;27;20045;-50
2021/06/15 00:15:55;;;;;;;10.40;7.10;;;;;;;18.93;59.75;101155.47;5122004;27;20058;-49
2021/06/15 00:18:21;;;;;;;9.27;6.72;;;;;;;18.91;60.43;101152.00;5105556;27;20050;-50
2021/06/15 00:20:48;;;;;;;13.02;6.47;;;;;;;18.84;60.41;101152.19;5095534;27;20038;-48
2021/06/15 00:23:14;;;;;;;10.70;6.97;;;;;;;18.75;61.03;101160.41;5099321;27;20387;-50
2021/06/15 00:25:41;;;;;;;12.27;7.15;;;;;;;18.79;60.48;101153.22;5089881;27;20113;-49
2021/06/15 00:28:07;;;;;;;10.07;6.97;;;;;;;18.80;60.80;101153.19;5109239;27;20576;-48
2021/06/15 00:30:35;;;;;;;11.68;7.78;;;;;;;18.88;60.01;101148.56;5118578;27;20042;-53
2021/06/15 00:33:01;;;;;;;13.43;7.38;;;;;;;18.76;60.25;101154.19;5119964;27;20039;-52
2021/06/15 00:35:27;;;;;;;9.70;6.05;;;;;;;18.71;61.09;101159.63;5109377;27;20092;-48
2021/06/15 00:37:52;;;;;;;10.55;6.35;;;;;;;18.59;62.88;101167.94;5123196;27;20439;-48
2021/06/15 00:40:20;;;;;;;9.45;6.85;;;;;;;18.52;62.75;101169.03;5103689;27;20042;-49
2021/06/15 00:42:46;;;;;;;7.75;6.63;;;;;;;18.26;63.29;101168.00;5103373;27;20034;-49
2021/06/15 00:45:14;;;;;;;11.23;6.78;;;;;;;18.21;63.45;101168.16;5090965;27;20039;-50
2021/06/15 00:47:48;;;;;;;10.85;6.70;;;;;;;18.29;63.13;101167.06;5085859;27;20034;-52
2021/06/15 00:50:15;;;;;;;10.60;7.07;;;;;;;18.17;63.48;101160.38;5109632;27;20474;-50
2021/06/15 00:52:42;;;;;;;11.83;7.20;;;;;;;18.12;63.41;101160.47;5127151;27;20677;-49
2021/06/15 00:55:08;;;;;;;10.88;7.22;;;;;;;18.09;63.83;101165.84;5109070;27;20035;-48
2021/06/15 00:57:34;;;;;;;9.98;6.95;;;;;;;17.97;64.67;101169.72;5122179;27;20300;-48
2021/06/15 01:00:01;;;;;;;9.55;7.15;;;;;;;18.19;63.05;101164.72;5105251;27;20038;-48
2021/06/15 01:02:31;;;;;;;9.90;6.88;;;;;;;18.36;63.34;101161.56;5092621;27;20050;-48
2021/06/15 01:04:59;;;;;;;10.18;7.10;;;;;;;18.27;63.99;101161.81;5089417;27;20522;-48
2021/06/15 01:07:45;;;;;;;9.85;6.60;;;;;;;18.10;63.69;101164.09;5103625;27;20047;-48
2021/06/15 01:10:34;;;;;;;9.05;7.47;;;;;;;18.00;64.25;101164.34;5105880;27;20041;-48
2021/06/15 01:13:19;;;;;;;9.88;7.22;;;;;;;17.74;65.76;101175.59;5094177;27;20035;-48
2021/06/15 01:16:12;;;;;;;19.73;11.13;;;;;;;17.73;65.72;101170.34;5108092;27;20033;-49
2021/06/15 01:18:45;;;;;;;18.75;9.55;;;;;;;17.63;66.03;101172.38;5105285;27;20491;-49
2021/06/15 01:21:13;;;;;;;14.70;9.30;;;;;;;17.74;65.43;101172.09;5110109;27;20137;-48
2021/06/15 01:23:48;;;;;;;17.13;9.88;;;;;;;17.58;65.46;101167.19;5107357;27;20039;-49
2021/06/15 01:26:40;;;;;;;21.30;11.68;;;;;;;17.46;67.17;101168.38;5089792;27;20466;-48
2021/06/15 01:29:09;;;;;;;14.93;9.35;;;;;;;17.31;67.04;101168.78;5101814;27;20123;-48
2021/06/15 01:31:47;;;;;;;13.48;8.25;;;;;;;17.41;67.18;101170.28;5073043;27;20136;-48
2021/06/15 01:34:23;;;;;;;15.45;9.63;;;;;;;17.38;66.25;101164.19;5104715;27;20029;-49
2021/06/15 01:37:04;;;;;;;16.73;8.60;;;;;;;17.36;66.44;101159.81;5113798;27;20064;-49
2021/06/15 01:39:36;;;;;;;12.55;8.73;;;;;;;17.67;66.68;101155.53;5116257;27;20050;-48
2021/06/15 01:42:10;;;;;;;13.02;7.65;;;;;;;17.60;65.26;101160.09;5115500;27;20066;-48
2021/06/15 01:44:38;;;;;;;12.07;8.02;;;;;;;18.10;64.96;101161.47;5105451;27;20065;-49
2021/06/15 01:47:11;;;;;;;14.52;8.02;;;;;;;17.40;66.89;101157.09;5105641;27;20115;-49
2021/06/15 01:49:45;;;;;;;10.30;8.02;;;;;;;17.60;65.95;101162.75;5119107;27;20116;-48
2021/06/15 01:52:13;;;;;;;11.77;7.88;;;;;;;17.28;66.67;101159.16;5098335;27;20062;-48
2021/06/15 01:54:42;;;;;;;11.10;8.18;;;;;;;17.78;64.05;101161.38;5087443;27;20030;-49
2021/06/15 01:57:18;;;;;;;10.65;7.93;;;;;;;17.82;65.33;101170.09;5089565;27;20041;-50
2021/06/15 01:59:46;;;;;;;12.52;7.47;;;;;;;17.66;66.30;101167.84;5109543;27;20057;-49
2021/06/15 02:02:15;;;;;;;11.55;7.72;;;;;;;17.47;65.67;101164.84;5111004;27;20087;-48
2021/06/15 02:04:46;;;;;;;;;;;;;;;17.10;67.96;101170.16;5108335;27;20035;-49
2021/06/15 02:07:16;;;;;;;11.38;7.47;;;;;;;17.28;67.54;101169.72;5087964;27;19919;-47
2021/06/15 02:09:46;;;;;;;11.73;7.38;;;;;;;17.19;68.13;101168.16;5093158;27;20031;-48
2021/06/15 02:12:39;;;;;;;10.73;7.78;;;;;;;16.88;68.67;101168.00;5108884;27;20049;-48
2021/06/15 02:15:27;;;;;;;9.73;7.22;;;;;;;17.07;67.66;101172.88;5109862;27;20363;-48
2021/06/15 02:18:21;;;;;;;10.95;7.72;;;;;;;16.62;70.29;101173.84;5074562;27;20053;-49
2021/06/15 02:21:00;;;;;;;10.48;7.53;;;;;;;16.64;68.85;101175.56;5090167;27;20031;-48
2021/06/15 02:23:27;;;;;;;13.10;8.20;;;;;;;16.39;71.45;101176.97;5097506;27;20044;-48
2021/06/15 02:25:59;;;;;;;13.13;8.43;;;;;;;16.49;70.49;101178.50;5084374;27;20046;-49
2021/06/15 02:28:26;;;;;;;11.32;7.80;;;;;;;16.60;69.59;101176.53;5090134;27;20100;-48
2021/06/15 02:30:53;;;;;;;9.50;7.32;;;;;;;16.81;68.67;101179.59;5102148;27;20512;-48
2021/06/15 02:33:24;;;;;;;10.35;8.18;;;;;;;16.28;72.35;101186.00;5088424;27;20038;-49
2021/06/15 02:36:07;;;;;;;11.77;7.95;;;;;;;16.13;72.82;101181.00;5108528;27;20126;-50
2021/06/15 02:38:39;;;;;;;11.88;8.20;;;;;;;16.07;72.09;101182.00;5098698;27;20638;-50
2021/06/15 02:41:08;;;;;;;12.10;8.48;;;;;;;16.25;72.42;101172.84;5120255;27;20252;-48
2021/06/15 02:43:38;;;;;;;11.82;8.45;;;;;;;15.99;73.11;101171.59;5096790;27;20113;-49
2021/06/15 02:46:05;;;;;;;;;;;;;;;15.87;73.40;101178.84;5101727;27;20548;-48
2021/06/15 02:48:33;;;;;;;11.13;7.95;;;;;;;16.07;72.01;101176.72;5069269;28;19951;-49
2021/06/15 02:51:00;;;;;;;9.77;7.57;;;;;;;16.00;72.68;101178.63;5100349;28;20035;-48
2021/06/15 02:53:29;;;;;;;10.75;7.90;;;;;;;15.76;74.69;101181.69;5098907;27;20039;-49
2021/06/15 02:56:01;;;;;;;11.68;8.20;;;;;;;15.59;74.98;101177.56;5107881;27;20857;-50
2021/06/15 02:58:32;;;;;;;9.18;7.82;;;;;;;15.80;73.27;101181.63;5105459;27;20035;-49
2021/06/15 03:01:03;;;;;;;14.18;8.48;;;;;;;16.09;72.07;101187.22;5109201;27;20058;-50
2021/06/15 03:03:29;;;;;;;13.45;8.63;;;;;;;15.73;73.34;101187.88;5090331;27;20054;-50
2021/06/15 03:05:56;;;;;;;11.43;8.95;;;;;;;15.76;73.69;101186.94;5092506;27;20031;-48
2021/06/15 03:08:24;;;;;;;11.68;7.80;;;;;;;15.61;74.10;101183.69;5105042;27;20046;-49
2021/06/15 03:10:50;;;;;;;11.13;8.95;;;;;;;15.59;74.08;101185.47;5105537;27;20598;-48
2021/06/15 03:13:23;;;;;;;10.63;8.18;;;;;;;15.57;74.31;101181.97;5092312;27;20114;-49
2021/06/15 03:15:53;;;;;;;11.73;8.88;;;;;;;15.70;74.19;101187.03;5111503;27;20217;-49
2021/06/15 03:18:35;;;;;;;11.93;8.02;;;;;;;15.54;74.21;101189.94;5093513;27;20035;-48
2021/06/15 03:21:07;;;;;;;11.65;8.35;;;;;;;15.71;73.75;101197.56;5105680;27;20099;-49
2021/06/15 03:23:33;;;;;;;14.25;8.35;;;;;;;15.53;74.65;101190.84;5093218;27;20296;-48
2021/06/15 03:26:03;;;;;;;11.85;8.20;;;;;;;15.62;73.02;101195.97;5098555;27;20035;-51
2021/06/15 03:28:31;;;;;;;11.25;9.15;;;;;;;15.41;76.13;101201.56;5102182;27;20035;-48
2021/06/15 03:31:01;;;;;;;10.45;8.73;;;;;;;15.44;74.61;101204.19;5108813;27;20529;-49
2021/06/15 03:33:30;;;;;;;10.93;8.48;;;;;;;15.55;74.74;101199.59;5087792;27;20035;-48
2021/06/15 03:36:00;;;;;;;12.63;8.45;;;;;;;15.57;75.15;101200.44;5092552;27;20632;-51
2021/06/15 03:38:33;;;;;;;12.55;9.10;;;;;;;15.46;74.79;101203.25;5081026;27;20039;-50
2021/06/15 03:41:00;;;;;;;14.20;9.93;;;;;;;15.61;73.84;101199.47;5091348;27;21270;-48
2021/06/15 03:43:28;;;;;;;11.75;9.80;;;;;;;15.47;75.21;101202.34;5104103;27;20084;-48
2021/06/15 03:46:03;;;;;;;14.27;9.77;;;;;;;15.52;73.68;101194.41;5106398;27;20533;-49
2021/06/15 03:48:30;;;;;;;13.43;9.32;;;;;;;15.53;74.46;101198.75;5122857;27;20581;-51
2021/06/15 03:50:57;;;;;;;12.02;9.63;;;;;;;15.49;74.68;101195.31;5124065;27;20392;-51
2021/06/15 03:53:31;;;;;;;16.83;10.32;;;;;;;15.29;75.58;101193.00;5119474;27;20406;-48
2021/06/15 03:56:00;;;;;;;13.95;9.75;;;;;;;15.42;74.46;101200.69;5115607;27;20034;-48
2021/06/15 03:58:27;;;;;;;14.30;11.10;;;;;;;15.31;76.63;101200.84;5115162;27;20043;-53
2021/06/15 04:00:54;;;;;;;12.50;10.02;;;;;;;15.64;74.69;101207.34;5104683;27;20271;-49
2021/06/15 04:03:21;;;;;;;14.70;10.38;;;;;;;15.49;75.86;101213.75;5106958;27;20035;-48
2021/06/15 04:05:48;;;;;;;10.73;8.93;;;;;;;15.75;72.92;101217.69;5075465;27;20079;-48
2021/06/15 04:08:15;;;;;;;12.93;10.10;;;;;;;15.87;74.53;101213.13;5106349;27;20051;-49
2021/06/15 04:10:45;;;;;;;14.65;9.88;;;;;;;15.99;72.27;101210.28;5104936;27;20408;-49
2021/06/15 04:13:14;;;;;;;14.32;10.05;;;;;;;16.00;73.98;101205.00;5106146;27;20311;-50
2021/06/15 04:15:41;;;;;;;14.80;10.63;;;;;;;15.66;75.60;101202.91;5124164;27;20027;-48
2021/06/15 04:18:08;;;;;;;13.40;9.13;;;;;;;15.40;76.00;101210.41;5133442;27;20038;-49
2021/06/15 04:20:39;;;;;;;14.75;9.55;;;;;;;15.46;74.78;101207.66;5124065;27;20041;-49
2021/06/15 04:23:07;;;;;;;10.38;8.10;;;;;;;15.65;73.73;101206.44;5123415;27;20413;-49
2021/06/15 04:25:39;;;;;;;11.27;8.98;;;;;;;15.85;73.74;101210.53;5112237;27;20043;-48
2021/06/15 04:28:06;;;;;;;10.48;8.68;;;;;;;15.89;74.16;101214.84;5121649;27;20125;-50
2021/06/15 04:30:34;;;;;;;12.85;9.10;;;;;;;15.88;72.82;101220.16;5119762;27;20332;-48
2021/06/15 04:33:03;;;;;;;16.70;10.55;;;;;;;15.85;74.03;101221.06;5123215;27;20037;-49
2021/06/15 04:35:37;;;;;;;12.55;9.20;;;;;;;15.84;73.06;101227.25;5121687;27;20039;-48
2021/06/15 04:38:13;;;;;;;13.00;9.40;;;;;;;16.04;72.06;101233.94;5122471;27;20047;-48
2021/06/15 04:40:44;;;;;;;14.60;11.05;;;;;;;15.89;74.60;101241.22;5122987;27;20043;-48
2021/06/15 04:43:20;;;;;;;13.98;10.95;;;;;;;15.74;75.19;101231.78;5102622;27;20507;-49
2021/06/15 04:45:49;;;;;;;14.25;11.23;;;;;;;15.73;75.89;101232.69;5103757;27;20043;-48
2021/06/15 04:48:25;;;;;;;14.32;11.63;;;;;;;15.76;75.65;101239.66;5120243;27;20111;-49
2021/06/15 04:50:57;;;;;;;15.77;12.00;;;;;;;15.78;75.63;101256.31;5129786;27;20488;-50
2021/06/15 04:53:23;;;;;;;14.32;11.75;;;;;;;15.97;75.58;101255.13;5124784;27;20130;-48
2021/06/15 04:55:50;;;;;;;16.25;12.75;;;;;;;16.05;76.27;101262.03;5121074;27;20059;-48
2021/06/15 04:58:19;;;;;;;15.93;13.95;;;;;;;16.05;75.73;101260.28;5137018;27;20091;-50
2021/06/15 05:00:47;;;;;;;17.40;14.10;;;;;;;16.38;75.28;101270.22;5141813;27;20037;-47
2021/06/15 05:03:14;;;;;;;19.13;14.65;;;;;;;16.15;74.90;101260.97;5135586;27;20043;-49
2021/06/15 05:05:40;;;;;;;18.95;14.43;;;;;;;16.21;74.86;101268.75;5121783;27;20031;-48
2021/06/15 05:08:13;;;;;;;21.92;15.27;;;;;;;16.18;76.72;101274.09;5126842;27;20477;-49
2021/06/15 05:10:39;;;;;;;21.30;15.80;;;;;;;16.33;75.90;101278.22;5116817;27;20572;-48
2021/06/15 05:13:09;;;;;;;18.00;14.98;;;;;;;16.68;73.97;101274.91;5114112;27;20042;-50
2021/06/15 05:15:37;;;;;;;18.88;15.27;;;;;;;16.79;74.83;101276.44;5117813;27;20067;-48
2021/06/15 05:18:03;;;;;;;20.00;15.10;;;;;;;16.96;74.43;101281.38;5118493;27;20471;-48
2021/06/15 05:20:28;;;;;;;19.80;15.13;;;;;;;17.11;74.21;101282.84;5137607;27;20041;-48
2021/06/15 05:23:08;;;;;;;19.58;15.75;;;;;;;16.94;74.87;101284.06;5116284;27;20127;-50
2021/06/15 05:25:34;;;;;;;20.05;16.17;;;;;;;17.02;74.98;101279.50;5121001;27;20043;-51
2021/06/15 05:28:00;;;;;;;19.48;14.80;;;;;;;17.07;74.09;101294.38;5102778;27;20053;-48
2021/06/15 05:30:28;;;;;;;19.95;14.82;;;;;;;17.04;74.16;101303.22;5119060;27;20151;-49
2021/06/15 05:32:54;;;;;;;22.00;15.13;;;;;;;17.24;73.16;101305.44;5120553;27;20050;-48
2021/06/15 05:35:20;;;;;;;22.08;15.60;;;;;;;17.16;73.43;101320.59;5115421;27;20031;-50
2021/06/15 05:37:47;;;;;;;20.27;14.75;;;;;;;17.19;73.25;101328.44;5123182;27;20046;-48
2021/06/15 05:40:14;;;;;;;21.48;15.85;;;;;;;17.11;74.56;101319.81;5137346;27;20058;-49
2021/06/15 05:42:40;;;;;;;22.40;16.27;;;;;;;17.27;74.45;101308.00;5135172;27;20037;-48
2021/06/15 05:45:08;;;;;;;21.67;15.15;;;;;;;17.41;73.92;101314.78;5138124;27;20049;-48
2021/06/15 05:47:35;;;;;;;18.88;14.43;;;;;;;17.31;73.42;101308.81;5119588;27;20585;-47
2021/06/15 05:50:02;;;;;;;19.67;14.82;;;;;;;17.23;73.63;101318.69;5130711;27;20130;-49
2021/06/15 05:52:28;;;;;;;21.48;15.27;;;;;;;17.28;72.49;101315.03;5103456;27;20061;-48
2021/06/15 05:54:54;;;;;;;18.67;15.10;;;;;;;17.28;70.67;101315.03;5121297;27;20487;-49
2021/06/15 05:57:19;;;;;;;22.70;15.68;;;;;;;17.34;72.79;101306.09;5137560;27;20483;-49
2021/06/15 05:59:45;;;;;;;21.10;15.30;;;;;;;17.38;73.99;101307.78;5118574;27;20039;-47
2021/06/15 06:02:11;;;;;;;21.98;15.13;;;;;;;17.47;74.12;101301.41;5138307;27;20679;-48
2021/06/15 06:10:11;;;;;;;21.13;14.32;;;;;;;17.61;72.62;101299.31;5134536;27;20035;-49
2021/06/15 06:12:36;;;;;;;20.67;15.55;;;;;;;17.87;72.46;101308.38;5102751;27;20614;-47
2021/06/15 06:15:03;;;;;;;19.35;14.52;;;;;;;18.21;71.00;101295.16;5133906;27;20070;-47
2021/06/15 06:17:29;;;;;;;21.38;14.23;;;;;;;18.26;70.30;101297.69;5136395;27;20049;-48
2021/06/15 06:19:55;;;;;;;21.58;15.75;;;;;;;18.31;68.95;101301.09;5137558;27;20050;-47
2021/06/15 06:22:22;;;;;;;21.67;15.48;;;;;;;18.36;70.63;101296.53;5134500;27;20052;-47
2021/06/15 06:24:48;;;;;;;19.75;15.77;;;;;;;18.53;70.07;101305.81;5136945;27;20149;-47
2021/06/15 06:27:14;;;;;;;19.05;14.68;;;;;;;18.46;69.12;101293.66;5135432;27;20046;-48
2021/06/15 06:29:40;;;;;;;18.98;14.90;;;;;;;18.34;68.85;101300.13;5135884;27;20034;-49
2021/06/15 06:32:06;;;;;;;20.50;14.10;;;;;;;18.17;69.40;101298.81;5127611;27;20036;-47
2021/06/15 06:34:32;;;;;;;21.45;14.82;;;;;;;18.49;69.34;101305.00;5124813;27;20521;-47
2021/06/15 06:36:58;;;;;;;20.15;15.70;;;;;;;18.56;69.17;101305.72;5113760;28;20972;-48
2021/06/15 06:39:23;;;;;;;17.58;14.45;;;;;;;18.67;68.58;101300.97;5128024;27;20049;-48
2021/06/15 06:41:49;;;;;;;18.40;13.57;;;;;;;18.80;67.08;101298.88;5145961;27;20066;-47
2021/06/15 06:44:15;;;;;;;19.83;14.55;;;;;;;18.72;68.21;101296.44;5138542;27;20042;-49
2021/06/15 06:46:42;;;;;;;19.42;14.38;;;;;;;18.79;67.80;101302.41;5125336;27;20289;-49
2021/06/15 06:49:08;;;;;;;20.50;15.15;;;;;;;18.80;68.18;101304.16;5139210;27;20038;-49
2021/06/15 06:51:34;;;;;;;20.08;13.90;;;;;;;18.69;67.05;101307.13;5137444;27;20027;-52
2021/06/15 06:54:00;;;;;;;18.65;14.80;;;;;;;18.74;66.88;101308.75;5142975;27;20475;-47
2021/06/15 06:56:26;;;;;;;20.55;14.50;;;;;;;18.68;67.27;101320.41;5137405;27;20031;-48
2021/06/15 06:58:52;;;;;;;18.60;12.30;;;;;;;18.66;67.47;101320.44;5148900;27;20122;-47
2021/06/15 07:01:21;;;;;;;18.20;14.77;;;;;;;18.67;68.91;101319.50;5142863;27;20049;-48
2021/06/15 07:03:47;;;;;;;20.95;14.05;;;;;;;19.14;66.80;101326.19;5120239;27;20391;-47
2021/06/15 07:06:13;;;;;;;18.35;13.50;;;;;;;18.95;68.52;101329.34;5146326;27;20440;-48
2021/06/15 07:08:38;;;;;;;19.52;12.75;;;;;;;18.89;67.97;101324.25;5135874;27;20042;-47
2021/06/15 07:11:04;;;;;;;16.67;12.52;;;;;;;18.83;66.36;101317.31;5139280;27;20131;-49
2021/06/15 07:13:30;;;;;;;16.80;12.15;;;;;;;18.94;67.99;101310.84;5140323;27;20038;-49
2021/06/15 07:15:55;;;;;;;15.50;10.88;;;;;;;19.07;66.87;101312.22;5138597;27;20122;-47
2021/06/15 07:18:21;;;;;;;16.27;11.15;;;;;;;19.04;67.25;101307.88;5127308;27;20450;-51
2021/06/15 07:20:47;;;;;;;14.73;11.18;;;;;;;19.04;65.27;101304.38;5129450;27;20039;-47
2021/06/15 07:23:14;;;;;;;15.70;10.13;;;;;;;19.08;67.37;101311.31;5119365;27;20407;-49
2021/06/15 07:25:40;;;;;;;13.88;10.77;;;;;;;19.20;66.33;101312.72;5118483;27;20035;-49
2021/06/15 07:28:06;;;;;;;16.15;10.25;;;;;;;19.19;65.02;101316.28;5120931;27;20481;-50
2021/06/15 07:30:32;;;;;;;14.98;10.95;;;;;;;19.48;64.16;101311.84;5124132;27;20033;-50
2021/06/15 07:32:58;;;;;;;14.52;10.05;;;;;;;19.46;65.05;101314.56;5112034;27;20514;-48
2021/06/15 07:35:26;;;;;;;12.65;8.98;;;;;;;19.89;64.34;101318.50;5124725;27;20043;-47
2021/06/15 07:37:52;;;;;;;11.98;8.25;;;;;;;19.95;64.60;101311.25;5127786;27;20424;-47
2021/06/15 07:40:22;;;;;;;13.10;8.52;;;;;;;19.99;63.74;101320.84;5122751;27;20088;-51
2021/06/15 07:42:54;;;;;;;10.27;7.50;;;;;;;20.06;63.87;101317.06;5124768;27;20027;-48
2021/06/15 07:45:21;;;;;;;12.15;8.88;;;;;;;20.07;63.13;101317.00;5124902;27;20130;-49
2021/06/15 07:47:47;;;;;;;13.90;8.85;;;;;;;20.25;62.83;101318.16;5133958;27;20050;-49
2021/06/15 07:50:15;;;;;;;12.07;8.50;;;;;;;20.35;63.57;101305.47;5135188;27;20049;-48
2021/06/15 07:52:41;;;;;;;11.75;8.18;;;;;;;20.43;63.58;101307.81;5124747;27;20054;-48
2021/06/15 07:55:07;;;;;;;13.00;7.82;;;;;;;20.44;63.60;101314.03;5117345;27;20035;-49
2021/06/15 07:57:33;;;;;;;13.27;6.88;;;;;;;20.58;61.96;101314.38;5122113;27;20023;-50
2021/06/15 07:59:58;;;;;;;13.55;7.68;;;;;;;20.58;61.36;101317.03;5103736;27;20057;-47
2021/06/15 08:02:24;;;;;;;10.30;8.02;;;;;;;20.68;62.85;101318.44;5120695;27;20453;-49
2021/06/15 08:04:49;;;;;;;13.88;8.45;;;;;;;20.78;61.63;101321.63;5126279;27;20394;-47
2021/06/15 08:07:15;;;;;;;13.43;9.15;;;;;;;20.67;61.95;101315.81;5123121;27;20116;-48
2021/06/15 08:09:41;;;;;;;11.55;7.85;;;;;;;20.87;60.97;101316.00;5123179;27;20033;-48
2021/06/15 08:12:07;;;;;;;14.18;9.07;;;;;;;20.78;61.66;101320.78;5117045;27;20035;-50
2021/06/15 08:14:32;;;;;;;13.43;8.35;;;;;;;20.75;60.92;101324.41;5100254;27;20047;-48
2021/06/15 08:16:59;;;;;;;11.60;7.90;;;;;;;20.69;61.55;101322.84;5114292;27;20072;-47
2021/06/15 08:19:26;;;;;;;12.00;9.13;;;;;;;20.79;60.92;101315.41;5091781;27;20111;-51
2021/06/15 08:21:52;;;;;;;11.98;8.15;;;;;;;21.21;60.92;101313.81;5114815;27;20038;-48
2021/06/15 08:24:17;;;;;;;12.38;7.93;;;;;;;21.06;60.71;101316.16;5116150;27;20562;-51
2021/06/15 08:26:44;;;;;;;9.02;7.30;;;;;;;21.14;61.09;101320.31;5113010;27;20482;-47
2021/06/15 08:29:10;;;;;;;11.48;7.82;;;;;;;21.27;60.07;101318.91;5110517;27;20039;-47
2021/06/15 08:31:36;;;;;;;8.52;6.18;;;;;;;21.43;60.04;101312.06;5104396;27;20043;-49
2021/06/15 08:34:02;;;;;;;12.57;7.00;;;;;;;21.50;59.07;101314.47;5134942;27;20034;-49
2021/06/15 08:36:28;;;;;;;8.98;7.03;;;;;;;21.54;59.66;101303.66;5124179;27;20042;-47
2021/06/15 08:38:53;;;;;;;10.65;6.47;;;;;;;21.66;59.74;101309.44;5122441;27;20129;-47
2021/06/15 08:41:20;;;;;;;10.65;7.13;;;;;;;21.60;57.69;101319.38;5131216;27;20738;-48
2021/06/15 08:43:46;;;;;;;11.23;7.03;;;;;;;21.57;58.34;101326.63;5140530;27;20652;-49
2021/06/15 08:46:13;;;;;;;11.55;6.47;;;;;;;21.68;57.90;101310.22;5134822;27;20600;-48
2021/06/15 08:48:39;;;;;;;8.00;6.18;;;;;;;21.66;57.21;101304.13;5143897;27;20027;-51
2021/06/15 08:51:05;;;;;;;10.30;5.90;;;;;;;21.53;59.18;101301.94;5136509;27;20266;-48
2021/06/15 08:53:35;;;;;;;8.30;5.93;;;;;;;21.68;57.46;101300.47;5122199;27;20042;-49
2021/06/15 08:56:10;;;;;;;7.55;5.50;;;;;;;21.97;57.20;101303.69;5114888;27;20056;-48
2021/06/15 08:58:43;;;;;;;8.95;4.90;;;;;;;21.83;55.52;101308.72;5117190;27;20043;-47
2021/06/15 09:01:11;;;;;;;8.00;5.50;;;;;;;21.82;57.38;101307.00;5118733;27;20038;-48
2021/06/15 09:03:37;;;;;;;9.55;5.45;;;;;;;21.91;55.99;101298.63;5118647;27;20038;-48
2021/06/15 09:06:03;;;;;;;8.80;5.70;;;;;;;21.94;56.85;101307.38;5118451;27;20051;-48
2021/06/15 09:08:30;;;;;;;12.55;5.85;;;;;;;22.00;56.38;101303.56;5123684;27;20350;-49
2021/06/15 09:10:56;;;;;;;8.57;5.57;;;;;;;22.29;56.63;101306.75;5119126;27;20038;-49
2021/06/15 09:13:37;;;;;;;7.15;4.60;;;;;;;22.09;57.08;101295.16;5121649;27;20069;-49
2021/06/15 09:16:18;;;;;;;10.20;5.40;;;;;;;22.49;54.52;101299.72;5096964;27;20043;-48
2021/06/15 09:18:44;;;;;;;9.80;5.18;;;;;;;22.42;56.56;101300.00;5098661;27;20414;-48
2021/06/15 09:21:10;;;;;;;8.85;5.65;;;;;;;22.16;55.50;101289.59;5122076;27;20398;-50
2021/06/15 09:23:38;;;;;;;10.45;5.60;;;;;;;22.43;55.25;101290.19;5110028;27;20217;-47
2021/06/15 09:26:06;;;;;;;7.88;4.72;;;;;;;22.34;56.95;101296.78;5121904;27;20430;-50
2021/06/15 09:28:32;;;;;;;8.85;5.40;;;;;;;22.63;54.73;101301.78;5145159;27;20084;-50
2021/06/15 09:31:09;;;;;;;7.85;5.68;;;;;;;22.56;54.61;101295.84;5119536;27;20041;-49
2021/06/15 09:33:44;;;;;;;7.72;5.32;;;;;;;22.55;53.82;101294.13;5141543;27;20315;-47
2021/06/15 09:36:13;;;;;;;8.38;5.30;;;;;;;22.65;55.08;101291.91;5104451;27;20031;-47
2021/06/15 09:39:01;;;;;;;7.80;4.95;;;;;;;22.89;53.13;101300.59;5119130;27;20047;-48
2021/06/15 09:41:36;;;;;;;9.02;4.65;;;;;;;22.63;55.15;101304.44;5132373;27;20045;-49
2021/06/15 09:44:30;;;;;;;8.60;4.50;;;;;;;23.03;53.63;101299.94;5140496;27;20046;-50
2021/06/15 09:47:00;;;;;;;6.68;4.90;;;;;;;22.92;54.35;101295.94;5116334;27;20507;-53
2021/06/15 09:49:39;;;;;;;6.03;4.72;;;;;;;22.90;53.19;101302.28;5119301;27;20082;-48
2021/06/15 09:52:17;;;;;;;8.77;5.18;;;;;;;22.95;54.03;101305.63;5124999;27;20065;-50
2021/06/15 09:54:46;;;;;;;7.50;5.03;;;;;;;22.92;53.28;101300.44;5098891;27;20027;-50
2021/06/15 09:57:22;;;;;;;8.90;5.32;;;;;;;22.94;54.06;101294.09;5100699;27;20030;-49
2021/06/15 10:00:09;;;;;;;8.15;4.90;;;;;;;22.89;54.59;101295.25;5116004;27;20403;-51
2021/06/15 10:02:45;;;;;;;7.90;5.05;;;;;;;23.20;54.09;101299.16;5117168;27;20068;-50
2021/06/15 10:05:31;;;;;;;8.00;4.68;;;;;;;23.41;53.66;101298.13;5116473;27;20037;-49
2021/06/15 10:07:59;;;;;;;8.10;6.50;;;;;;;23.09;53.72;101295.16;5123267;27;20035;-49
2021/06/15 10:10:33;;;;;;;9.90;6.45;;;;;;;23.10;53.49;101298.69;5116522;27;20058;-49
2021/06/15 10:12:59;;;;;;;10.02;5.65;;;;;;;23.12;52.16;101292.41;5118753;27;20573;-48
2021/06/15 10:15:27;;;;;;;7.25;5.00;;;;;;;23.15;52.75;101290.50;5134523;27;21067;-48
2021/06/15 10:17:54;;;;;;;7.55;4.53;;;;;;;23.09;53.49;101292.47;5116436;27;20039;-48
2021/06/15 10:20:21;;;;;;;7.13;5.03;;;;;;;23.40;54.54;101296.41;5121102;27;20035;-49
2021/06/15 10:22:48;;;;;;;8.23;5.27;;;;;;;23.39;53.43;101293.81;5116740;27;20031;-48
2021/06/15 10:25:15;;;;;;;7.85;4.88;;;;;;;23.43;51.52;101300.72;5123741;27;20035;-49
2021/06/15 10:27:42;;;;;;;8.18;4.53;;;;;;;23.56;51.99;101284.97;5137374;27;20325;-49
2021/06/15 10:30:10;;;;;;;9.27;5.30;;;;;;;23.55;50.36;101284.13;5133642;27;20041;-49
2021/06/15 10:32:53;;;;;;;9.52;5.32;;;;;;;23.49;51.88;101288.88;5138304;27;20046;-49
2021/06/15 10:35:34;;;;;;;9.50;5.28;;;;;;;23.39;51.42;101293.81;5138996;27;20046;-48
2021/06/15 10:38:01;;;;;;;8.07;4.85;;;;;;;23.36;51.90;101289.47;5103260;27;20038;-50
2021/06/15 10:40:27;;;;;;;6.88;4.43;;;;;;;23.33;51.33;101294.97;5139335;27;21006;-51
2021/06/15 10:43:21;;;;;;;6.85;4.40;;;;;;;23.33;50.75;101294.09;5140270;27;20039;-49
2021/06/15 10:45:52;;;;;;;5.65;3.55;;;;;;;23.73;50.34;101293.00;5127402;27;20471;-53
2021/06/15 10:48:19;;;;;;;5.38;3.65;;;;;;;23.48;51.23;101281.81;5124436;27;20046;-50
2021/06/15 10:50:47;;;;;;;7.28;3.90;;;;;;;23.47;52.04;101278.28;5115808;27;20126;-50
2021/06/15 10:53:18;;;;;;;8.27;3.67;;;;;;;23.65;50.82;101284.53;5098264;27;20201;-49
2021/06/15 10:55:48;;;;;;;7.07;3.30;;;;;;;23.90;47.86;101272.63;5121146;27;20121;-49
2021/06/15 10:58:16;;;;;;;8.57;2.85;;;;;;;23.93;47.21;101269.81;5117489;27;20062;-49
2021/06/15 11:00:43;;;;;;;6.13;2.77;;;;;;;23.96;49.42;101278.50;5116979;27;20035;-52
2021/06/15 11:03:20;;;;;;;5.18;3.08;;;;;;;24.19;48.42;101272.91;5121038;27;20378;-49
2021/06/15 11:05:51;;;;;;;6.13;2.75;;;;;;;24.04;46.52;101269.25;5112238;27;20050;-51
2021/06/15 11:08:23;;;;;;;5.00;2.70;;;;;;;23.98;48.21;101270.41;5100762;27;20149;-52
2021/06/15 11:10:48;;;;;;;4.53;2.42;;;;;;;24.30;45.34;101276.75;5120813;27;20073;-52
2021/06/15 11:13:14;;;;;;;4.95;2.80;;;;;;;23.99;48.43;101277.47;5120856;27;20046;-49
2021/06/15 11:16:01;;;;;;;4.53;2.72;;;;;;;24.39;45.45;101280.75;5104169;27;20038;-51
2021/06/15 11:18:29;;;;;;;3.92;2.80;;;;;;;24.65;45.22;101278.53;5135047;27;20376;-53
2021/06/15 11:21:24;;;;;;;4.53;2.78;;;;;;;24.35;46.34;101263.16;5119841;27;20538;-51
2021/06/15 11:23:50;;;;;;;8.38;3.30;;;;;;;24.04;45.87;101259.44;5144661;27;20376;-49
2021/06/15 11:26:16;;;;;;;5.05;2.80;;;;;;;24.13;46.07;101269.63;5133785;27;20095;-49
2021/06/15 11:28:44;;;;;;;5.82;3.22;;;;;;;24.14;46.11;101275.84;5139086;27;20046;-49
2021/06/15 11:31:18;;;;;;;5.28;3.15;;;;;;;24.33;46.94;101266.84;5142136;27;20103;-50
2021/06/15 11:33:59;;;;;;;4.50;3.40;;;;;;;24.56;46.22;101261.16;5139409;27;20047;-50